Change Of Latitude — WDF6082 — position and weather

sailwx.info

Track history (hours):
 
Tides and Currents Weather Stations Pressure Air Temp Water Temp Dewpoint Dewpoint Depression Visibility Wind Speed Wind Dir Waves Ship Positions

Change Of Latitude

Owner: Donrah LLC, Bellingham, WA. More information available from US FCC via Universal Licensing System and Coast Guard Vessel Documentation Center.

Last reported at 2015-Jun-18 19:32 UTC. Time now 2015-Jul-05 21:03 UTC.
Position N 48°36' W 122°49'.
Warning: this ship's position is 17 days out of date.

Length 15 m.

Type: Pleasure craft. MMSI: 367470440.

Date/timePositionNaut miles runAvg speedWind from/ knotsBaromVisibWave heightAir tempDewpointWater temp
2015-Jun-18 19:32N 48°36' W 122°49'1 0.6
2015-Jun-18 17:33N 48°37' W 122°50'20 0.6
2015-Jun-17 08:28N 48°38' W 123°21'0 0.0
2015-Jun-17 07:31N 48°38' W 123°21'0 0.0
2015-Jun-17 06:31N 48°38' W 123°21'0 0.0
2015-Jun-17 05:31N 48°38' W 123°21'0 0.0
2015-Jun-17 02:40N 48°38' W 123°21'0 0.0
2015-Jun-17 01:40N 48°38' W 123°21'0 0.0
2015-Jun-17 00:31N 48°38' W 123°21'0 0.1
2015-Jun-16 23:33N 48°39' W 123°21'5 4.9
2015-Jun-16 22:33N 48°42' W 123°26'7 6.5
2015-Jun-16 21:29N 48°44' W 123°36'1 0.0
2015-Jun-15 22:30N 48°45' W 123°37'  
Track history (hours):
 
Tides and Currents Weather Stations Pressure Air Temp Water Temp Dewpoint Dewpoint Depression Visibility Wind Speed Wind Dir Waves Ship Positions

Change Of Latitude

Owner: Donrah LLC, Bellingham, WA. More information available from US FCC via Universal Licensing System and Coast Guard Vessel Documentation Center.

Last reported at 2015-Jun-18 19:32 UTC. Time now 2015-Jul-05 21:03 UTC.
Position N 48°36' W 122°49'.
Warning: this ship's position is 17 days out of date.

Length 15 m.

Type: Pleasure craft. MMSI: 367470440.

Date/timePositionNaut miles runAvg speedWind from/ knotsBaromVisibWave heightAir tempDewpointWater temp
2015-Jun-18 19:32N 48°36' W 122°49'1 0.6
2015-Jun-18 17:33N 48°37' W 122°50'20 0.6
2015-Jun-17 08:28N 48°38' W 123°21'0 0.0
2015-Jun-17 07:31N 48°38' W 123°21'0 0.0
2015-Jun-17 06:31N 48°38' W 123°21'0 0.0
2015-Jun-17 05:31N 48°38' W 123°21'0 0.0
2015-Jun-17 02:40N 48°38' W 123°21'0 0.0
2015-Jun-17 01:40N 48°38' W 123°21'0 0.0
2015-Jun-17 00:31N 48°38' W 123°21'0 0.1
2015-Jun-16 23:33N 48°39' W 123°21'5 4.9
2015-Jun-16 22:33N 48°42' W 123°26'7 6.5
2015-Jun-16 21:29N 48°44' W 123°36'1 0.0
2015-Jun-15 22:30N 48°45' W 123°37'  

Dump ship's entire track history